Portada
METAR-TAF:

METAR-TAF

Aeroports :

Phrae, Tailàndia

latitud: 18-10N, longitud: 100-10E, altitud: 161 m

Observació

L'informe es va fer fa 21 minuts, a les 03:00 UTC
Vent calma
Temperatura 34°C
Humitat 41%
Pressió 1012 hPa
Visibilitat: 3500 m
calitja

METAR: VTCP 210300Z 00000KT 3500 HZ NSC 34/19 Q1012 NOSIG

Hora: 10:21 (03:21 UTC)

Pronòstic

L'informe es va fer fa 4 hores i 21 minuts, a les 23:00 UTC
Pronòstic vàlid del 21 a les 00 UTC al 21 a les 24 UTC
Vent 5 kt del Sud-Oest
Visibilitat: 4000 m
Escasses núvols a una alçada de 3000 ft
boirina
Evolucionant progressivament
l' 21 a les 01 UTC al 21 a les 03 UTC
Visibilitat: 9000 m

TAF: VTCP 202300Z 2100/2124 23005KT 4000 BR FEW030 BECMG 2101/2103 9000 NSW

Observacions i pronòstics meteorològics de més de 4000 aeroports (METAR i TAF).

Les estacions disponibles són els punts grocs i vermells al mapa.

Posi el ratolí al punt desitjat per veure el nom de l'estació.

Feu clic per veure les observacions i els pronòstics meteorològics.

Per canviar el mapa: feu clic els botons verds amb una creu de color negre per apropar; al botó verd amb un guió per allunyar la imatge; o en les fletxes verdes per a mapes adjacents.


METAR-TAF: